createdAt,value
2018-05-15T00:00:02.740Z,5.17
2018-05-15T00:02:36.103Z,5.70
2018-05-15T00:05:08.747Z,5.47
2018-05-15T00:07:42.158Z,5.17
2018-05-15T00:10:15.576Z,5.40
2018-05-15T00:12:48.182Z,5.43
2018-05-15T00:15:20.845Z,5.30
2018-05-15T00:17:54.227Z,5.97
2018-05-15T00:20:26.863Z,5.70
2018-05-15T00:22:59.471Z,5.73
2018-05-15T00:25:32.123Z,5.53
2018-05-15T00:28:04.772Z,5.20
2018-05-15T00:30:37.420Z,5.37
2018-05-15T00:33:10.788Z,5.70
2018-05-15T00:35:43.439Z,6.17
2018-05-15T00:38:16.027Z,5.50
2018-05-15T00:40:48.673Z,5.87
2018-05-15T00:43:21.280Z,5.83
2018-05-15T00:45:53.958Z,5.63
2018-05-15T00:48:26.558Z,6.03
2018-05-15T00:50:59.219Z,5.67
2018-05-15T00:53:31.821Z,5.80
2018-05-15T00:56:04.467Z,5.73
2018-05-15T00:58:37.068Z,5.43
2018-05-15T01:01:09.701Z,5.67
2018-05-15T01:03:42.309Z,5.33
2018-05-15T01:06:14.923Z,5.77
2018-05-15T01:08:47.541Z,5.63
2018-05-15T01:11:20.180Z,5.57
2018-05-15T01:13:52.777Z,6.13
2018-05-15T01:16:26.172Z,6.40
2018-05-15T01:18:58.793Z,6.43
2018-05-15T01:21:31.453Z,6.30
2018-05-15T01:24:04.052Z,6.47
2018-05-15T01:26:36.687Z,6.73
2018-05-15T01:29:09.276Z,6.30
2018-05-15T01:31:41.892Z,6.30
2018-05-15T01:34:14.482Z,6.83
2018-05-15T01:36:47.119Z,6.87
2018-05-15T01:39:19.732Z,6.30
2018-05-15T01:41:52.375Z,6.50
2018-05-15T01:44:24.984Z,6.53
2018-05-15T01:46:57.618Z,6.57
2018-05-15T01:49:30.210Z,6.63
2018-05-15T01:52:02.864Z,6.20
2018-05-15T01:54:35.475Z,6.50
2018-05-15T01:57:08.856Z,6.97
2018-05-15T01:59:41.510Z,7.60
2018-05-15T02:02:14.146Z,6.70
2018-05-15T02:04:46.747Z,7.53
2018-05-15T02:07:20.130Z,6.70
2018-05-15T02:09:52.719Z,7.00
2018-05-15T02:12:25.335Z,6.43
2018-05-15T02:14:57.930Z,7.40
2018-05-15T02:17:31.343Z,7.10
2018-05-15T02:20:04.711Z,6.63
2018-05-15T02:22:37.360Z,7.10
2018-05-15T02:25:09.958Z,6.83
2018-05-15T02:27:42.589Z,6.40
2018-05-15T02:30:15.196Z,6.87
2018-05-15T02:32:47.845Z,6.87
2018-05-15T02:35:20.487Z,6.60
2018-05-15T02:37:53.162Z,6.80
2018-05-15T02:40:25.771Z,7.33
2018-05-15T02:42:58.420Z,7.93
2018-05-15T02:45:31.027Z,7.43
2018-05-15T02:48:03.696Z,7.47
2018-05-15T02:50:36.292Z,7.23
2018-05-15T02:53:08.923Z,8.47
2018-05-15T02:55:41.536Z,8.00
2018-05-15T02:58:14.175Z,7.93
2018-05-15T03:00:46.770Z,8.30
2018-05-15T03:03:19.405Z,7.97
2018-05-15T03:05:52.004Z,7.93
2018-05-15T03:08:25.479Z,8.40
2018-05-15T03:10:58.083Z,7.73
2018-05-15T03:13:30.738Z,7.53
2018-05-15T03:16:03.371Z,7.83
2018-05-15T03:18:36.018Z,7.60
2018-05-15T03:21:08.614Z,8.17
2018-05-15T03:23:41.918Z,8.10
2018-05-15T03:26:14.515Z,7.83
2018-05-15T03:28:47.169Z,8.23
2018-05-15T03:31:19.772Z,7.90
2018-05-15T03:33:52.411Z,7.67
2018-05-15T03:36:25.010Z,8.40
2018-05-15T03:38:57.655Z,8.17
2018-05-15T03:41:30.259Z,7.90
2018-05-15T03:44:02.921Z,8.33
2018-05-15T03:46:35.530Z,8.00
2018-05-15T03:49:08.158Z,8.53
2018-05-15T03:51:40.752Z,8.93
2018-05-15T03:54:13.387Z,8.13
2018-05-15T03:56:46.763Z,8.97
2018-05-15T03:59:19.386Z,8.27
2018-05-15T04:02:04.759Z,8.03
2018-05-15T04:04:50.094Z,8.87
2018-05-15T04:07:34.595Z,9.47
2018-05-15T04:10:07.244Z,9.03
2018-05-15T04:12:39.843Z,8.50
2018-05-15T04:15:12.480Z,9.07
2018-05-15T04:17:45.093Z,9.30
2018-05-15T04:20:17.738Z,8.33
2018-05-15T04:22:50.355Z,9.33
2018-05-15T04:25:22.989Z,9.40
2018-05-15T04:27:55.606Z,10.30
2018-05-15T04:30:28.226Z,9.20
2018-05-15T04:33:00.821Z,9.60
2018-05-15T04:35:33.463Z,9.97
2018-05-15T04:38:06.212Z,9.80
2018-05-15T04:40:38.853Z,9.37
2018-05-15T04:43:11.476Z,8.87
2018-05-15T04:45:44.095Z,9.43
2018-05-15T04:48:16.699Z,8.77
2018-05-15T04:50:49.339Z,9.60
2018-05-15T04:53:21.939Z,8.80
2018-05-15T04:55:54.583Z,9.27
2018-05-15T04:58:27.183Z,8.93
2018-05-15T05:00:59.793Z,9.00
2018-05-15T05:03:32.378Z,8.53
2018-05-15T05:06:05.014Z,8.17
2018-05-15T05:08:37.607Z,8.60
2018-05-15T05:11:10.248Z,8.67
2018-05-15T05:13:43.158Z,8.23
2018-05-15T05:16:15.803Z,8.80
2018-05-15T05:18:49.244Z,8.63
2018-05-15T05:21:21.891Z,8.10
2018-05-15T05:23:54.502Z,8.13
2018-05-15T05:26:27.160Z,7.87
2018-05-15T05:28:59.779Z,8.17
2018-05-15T05:31:32.439Z,8.07
2018-05-15T05:34:05.046Z,8.93
2018-05-15T05:36:38.455Z,9.23
2018-05-15T05:39:11.054Z,8.07
2018-05-15T05:41:44.482Z,8.87
2018-05-15T05:44:17.988Z,8.23
2018-05-15T05:46:51.375Z,8.87
2018-05-15T05:49:23.980Z,9.27
2018-05-15T05:51:56.614Z,9.30
2018-05-15T05:54:29.220Z,9.17
2018-05-15T05:57:01.863Z,8.80
2018-05-15T05:59:35.227Z,7.60
2018-05-15T06:02:07.841Z,7.90
2018-05-15T06:04:40.443Z,7.67
2018-05-15T06:07:13.080Z,7.10
2018-05-15T06:09:46.448Z,8.40
2018-05-15T06:12:19.071Z,7.10
2018-05-15T06:14:51.672Z,7.93
2018-05-15T06:17:24.291Z,7.47
2018-05-15T06:19:56.886Z,7.50
2018-05-15T06:22:29.523Z,7.40
2018-05-15T06:25:02.907Z,7.70
2018-05-15T06:27:35.609Z,9.17
2018-05-15T06:30:08.183Z,7.00
2018-05-15T06:32:40.826Z,7.73
2018-05-15T06:35:14.344Z,6.57
2018-05-15T06:37:46.987Z,7.10
2018-05-15T06:40:19.621Z,7.90
2018-05-15T06:42:52.270Z,7.07
2018-05-15T06:45:24.868Z,6.97
2018-05-15T06:47:58.275Z,6.70
2018-05-15T06:50:31.643Z,6.90
2018-05-15T06:53:04.282Z,6.43
2018-05-15T06:55:37.642Z,7.43
2018-05-15T06:58:10.259Z,7.33
2018-05-15T07:00:42.856Z,7.17
2018-05-15T07:03:15.462Z,6.60
2018-05-15T07:05:48.831Z,7.23
2018-05-15T07:08:21.472Z,6.53
2018-05-15T07:10:54.842Z,7.33
2018-05-15T07:13:27.467Z,7.10
2018-05-15T07:16:00.835Z,7.63
2018-05-15T07:18:33.475Z,7.57
2018-05-15T07:21:06.833Z,7.57
2018-05-15T07:23:39.475Z,6.60
2018-05-15T07:26:12.075Z,7.00
2018-05-15T07:28:44.703Z,7.10
2018-05-15T07:31:17.286Z,6.40
2018-05-15T07:33:49.920Z,6.40
2018-05-15T07:36:22.507Z,6.53
2018-05-15T07:38:55.148Z,5.67
2018-05-15T07:41:27.741Z,6.13
2018-05-15T07:44:01.148Z,6.20
2018-05-15T07:46:33.765Z,5.53
2018-05-15T07:49:06.402Z,5.77
2018-05-15T07:51:39.758Z,5.47
2018-05-15T07:54:12.391Z,5.80
2018-05-15T07:56:44.989Z,5.57
2018-05-15T07:59:18.551Z,5.77
2018-05-15T08:01:51.144Z,5.67
2018-05-15T08:04:23.834Z,5.87
2018-05-15T08:06:56.410Z,5.50
2018-05-15T08:09:29.023Z,5.30
2018-05-15T08:12:01.615Z,5.47
2018-05-15T08:14:34.231Z,5.50
2018-05-15T08:17:06.833Z,4.90
2018-05-15T08:19:39.454Z,5.07
2018-05-15T08:22:12.115Z,5.47
2018-05-15T08:24:44.773Z,5.00
2018-05-15T08:27:17.374Z,5.13
2018-05-15T08:29:50.004Z,4.87
2018-05-15T08:32:22.611Z,4.73
2018-05-15T08:34:55.246Z,4.37
2018-05-15T08:37:27.902Z,4.70
2018-05-15T08:40:00.495Z,4.10
2018-05-15T08:42:33.110Z,4.50
2018-05-15T08:45:05.751Z,4.23
2018-05-15T08:47:38.387Z,4.10
2018-05-15T08:50:11.019Z,3.90
2018-05-15T08:52:43.611Z,3.70
2018-05-15T08:55:16.235Z,4.00
2018-05-15T08:57:48.828Z,3.80
2018-05-15T09:00:21.468Z,3.80
2018-05-15T09:02:54.079Z,4.10
2018-05-15T09:05:27.487Z,4.10
2018-05-15T09:08:00.082Z,4.00
2018-05-15T09:10:32.715Z,4.03
2018-05-15T09:13:05.311Z,3.80
2018-05-15T09:15:37.935Z,3.60
2018-05-15T09:18:10.534Z,3.87
2018-05-15T09:20:43.168Z,3.97
2018-05-15T09:23:15.769Z,3.93
2018-05-15T09:25:48.383Z,4.17
2018-05-15T09:28:21.009Z,3.80
2018-05-15T09:30:53.625Z,4.47
2018-05-15T09:33:26.216Z,4.47
2018-05-15T09:35:58.855Z,3.57
2018-05-15T09:38:31.462Z,3.97
2018-05-15T09:41:04.108Z,4.00
2018-05-15T09:46:44.085Z,4.00
2018-05-15T09:49:20.991Z,3.80
2018-05-15T09:51:53.627Z,3.70
2018-05-15T09:54:26.230Z,3.43
2018-05-15T09:56:58.868Z,3.60
2018-05-15T09:59:31.450Z,4.10
2018-05-15T10:02:04.107Z,3.53
2018-05-15T10:04:36.711Z,3.30
2018-05-15T10:07:10.114Z,4.00
2018-05-15T10:09:42.715Z,4.00
2018-05-15T10:12:16.113Z,3.60
2018-05-15T10:14:48.716Z,3.40
2018-05-15T10:17:22.128Z,3.20
2018-05-15T10:19:54.784Z,3.20
2018-05-15T10:22:27.360Z,3.43
2018-05-15T10:24:59.964Z,3.27
2018-05-15T10:27:32.610Z,3.00
2018-05-15T10:30:05.332Z,3.53
2018-05-15T10:32:37.882Z,3.53
2018-05-15T10:35:11.239Z,3.50
2018-05-15T10:37:43.855Z,3.43
2018-05-15T10:40:16.459Z,3.70
2018-05-15T10:42:49.099Z,3.20
2018-05-15T10:45:21.695Z,3.30
2018-05-15T10:47:54.306Z,3.20
2018-05-15T10:50:26.897Z,3.37
2018-05-15T10:52:59.537Z,3.40
2018-05-15T10:55:32.893Z,3.33
2018-05-15T10:58:05.537Z,3.70
2018-05-15T11:00:38.140Z,3.17
2018-05-15T11:03:17.404Z,2.80
2018-05-15T11:05:50.009Z,3.40
2018-05-15T11:08:22.647Z,3.20
2018-05-15T11:10:55.230Z,3.80
2018-05-15T11:13:28.643Z,3.80
2018-05-15T11:16:02.013Z,3.13
2018-05-15T11:18:41.946Z,3.80
2018-05-15T11:21:26.419Z,3.67
2018-05-15T11:27:14.249Z,4.23
2018-05-15T11:29:46.895Z,4.07
2018-05-15T11:32:19.492Z,3.93
2018-05-15T11:34:52.202Z,3.60
2018-05-15T11:37:24.810Z,4.07
2018-05-15T11:39:57.460Z,4.23
2018-05-15T11:42:30.209Z,4.30
2018-05-15T11:45:02.824Z,4.07
2018-05-15T11:47:36.502Z,4.40
2018-05-15T11:50:09.448Z,4.30
2018-05-15T11:52:42.001Z,4.50
2018-05-15T11:55:14.149Z,4.10
2018-05-15T11:57:46.827Z,4.23
2018-05-15T12:00:19.399Z,3.93
2018-05-15T12:02:52.002Z,3.83
2018-05-15T12:05:24.646Z,3.60
2018-05-15T12:07:57.286Z,3.27
2018-05-15T12:10:30.070Z,3.20
2018-05-15T12:13:03.435Z,3.20
2018-05-15T12:15:36.067Z,3.67
2018-05-15T12:18:08.665Z,3.40
2018-05-15T12:20:41.316Z,3.80
2018-05-15T12:23:13.911Z,3.20
2018-05-15T12:25:46.558Z,3.40
2018-05-15T12:28:19.165Z,3.00
2018-05-15T12:30:51.842Z,3.27
2018-05-15T12:33:24.449Z,3.80
2018-05-15T12:35:57.177Z,3.43
2018-05-15T12:38:29.757Z,4.13
2018-05-15T12:41:02.387Z,4.30
2018-05-15T12:43:34.991Z,3.50
2018-05-15T12:46:07.611Z,3.57
2018-05-15T12:48:40.295Z,3.80
2018-05-15T12:51:13.643Z,2.30
2018-05-15T12:53:46.237Z,2.50
2018-05-15T12:56:18.870Z,2.73
2018-05-15T12:58:51.477Z,2.50
2018-05-15T13:01:27.371Z,2.50
2018-05-15T13:03:59.971Z,2.83
2018-05-15T13:06:32.620Z,2.40
2018-05-15T13:09:06.063Z,2.30
2018-05-15T13:11:38.704Z,3.33
2018-05-15T13:14:11.319Z,2.87
2018-05-15T13:16:43.934Z,2.40
2018-05-15T13:19:16.536Z,2.20
2018-05-15T13:21:49.199Z,2.40
2018-05-15T13:24:21.832Z,2.40
2018-05-15T13:26:54.465Z,2.40
2018-05-15T13:29:27.181Z,2.07
2018-05-15T13:31:59.823Z,2.10
2018-05-15T13:34:32.427Z,2.20
2018-05-15T13:37:05.103Z,2.70
2018-05-15T13:39:38.484Z,2.50
2018-05-15T13:42:11.156Z,2.50
2018-05-15T13:44:43.767Z,2.50
2018-05-15T13:47:16.433Z,2.27
2018-05-15T13:49:49.069Z,2.40
2018-05-15T13:52:21.712Z,2.23
2018-05-15T13:54:54.327Z,2.70
2018-05-15T13:57:26.960Z,3.63
2018-05-15T13:59:59.591Z,2.77
2018-05-15T14:02:32.214Z,2.90
2018-05-15T14:05:04.805Z,2.77
2018-05-15T14:07:37.479Z,2.53
2018-05-15T14:10:10.129Z,2.67
2018-05-15T14:12:42.782Z,2.67
2018-05-15T14:15:15.384Z,2.67
2018-05-15T14:17:48.050Z,2.27
2018-05-15T14:20:20.655Z,2.73
2018-05-15T14:22:53.296Z,3.20
2018-05-15T14:25:26.658Z,3.17
2018-05-15T14:27:59.295Z,2.93
2018-05-15T14:30:31.883Z,2.43
2018-05-15T14:33:04.528Z,2.37
2018-05-15T14:35:37.127Z,1.80
2018-05-15T14:38:09.747Z,2.47
2018-05-15T14:40:42.344Z,2.00
2018-05-15T14:43:27.179Z,2.40
2018-05-15T14:45:59.791Z,2.53
2018-05-15T14:48:33.220Z,2.67
2018-05-15T14:54:17.868Z,2.80
2018-05-15T14:56:50.453Z,3.53
2018-05-15T14:59:23.086Z,2.53
2018-05-15T15:01:55.681Z,3.00
2018-05-15T15:04:28.294Z,2.70
2018-05-15T15:07:00.900Z,2.37
2018-05-15T15:09:33.516Z,2.70
2018-05-15T15:12:06.110Z,2.90
2018-05-15T15:14:38.727Z,2.40
2018-05-15T15:17:11.332Z,2.90
2018-05-15T15:19:44.728Z,2.50
2018-05-15T15:22:17.327Z,2.53
2018-05-15T15:24:49.960Z,3.00
2018-05-15T15:27:22.563Z,2.70
2018-05-15T15:29:55.196Z,2.83
2018-05-15T15:32:27.781Z,2.70
2018-05-15T15:35:00.411Z,2.40
2018-05-15T15:37:33.007Z,3.80
2018-05-15T15:40:05.732Z,2.63
2018-05-15T15:42:38.348Z,2.97
2018-05-15T15:45:11.837Z,2.70
2018-05-15T15:47:44.695Z,3.43
2018-05-15T15:50:24.647Z,2.70
2018-05-15T15:52:57.328Z,2.63
2018-05-15T15:55:30.781Z,2.73
2018-05-15T15:58:03.501Z,3.07
2018-05-15T16:00:36.246Z,2.50
2018-05-15T16:03:09.680Z,2.90
2018-05-15T16:05:42.302Z,2.47
2018-05-15T16:08:14.920Z,3.53
2018-05-15T16:10:48.336Z,3.13
2018-05-15T16:13:21.783Z,2.63
2018-05-15T16:15:54.453Z,3.10
2018-05-15T16:18:27.271Z,3.57
2018-05-15T16:21:00.261Z,4.07
2018-05-15T16:23:32.909Z,4.70
2018-05-15T16:26:05.555Z,5.37
2018-05-15T16:28:38.242Z,4.53
2018-05-15T16:31:10.902Z,4.40
2018-05-15T16:33:43.912Z,4.73
2018-05-15T16:36:16.558Z,3.90
2018-05-15T16:38:49.265Z,4.23
2018-05-15T16:41:21.904Z,3.67
2018-05-15T16:43:54.557Z,3.93
2018-05-15T16:46:27.970Z,3.13
2018-05-15T16:49:00.575Z,3.63
2018-05-15T16:51:33.211Z,3.30
2018-05-15T16:54:05.799Z,3.20
2018-05-15T16:56:39.204Z,6.20
2018-05-15T16:59:11.799Z,5.27
2018-05-15T17:01:45.447Z,4.93
2018-05-15T17:04:18.043Z,3.27
2018-05-15T17:06:50.659Z,3.20
2018-05-15T17:09:24.027Z,3.30
2018-05-15T17:11:56.714Z,3.30
2018-05-15T17:14:29.321Z,3.30
2018-05-15T17:17:01.971Z,3.27
2018-05-15T17:19:34.567Z,3.33
2018-05-15T17:22:07.246Z,3.10
2018-05-15T17:24:39.839Z,3.07
2018-05-15T17:27:12.451Z,3.47
2018-05-15T17:29:45.050Z,3.40
2018-05-15T17:32:17.675Z,2.93
2018-05-15T17:34:50.263Z,3.47
2018-05-15T17:37:22.891Z,2.83
2018-05-15T17:39:55.491Z,3.47
2018-05-15T17:42:28.179Z,2.97
2018-05-15T17:45:00.770Z,3.60
2018-05-15T17:47:33.392Z,3.13
2018-05-15T17:50:05.986Z,4.13
2018-05-15T17:52:38.700Z,3.67
2018-05-15T17:55:11.252Z,3.90
2018-05-15T17:57:43.890Z,4.10
2018-05-15T18:00:16.480Z,4.50
2018-05-15T18:02:49.115Z,3.67
2018-05-15T18:05:21.707Z,4.20
2018-05-15T18:07:54.381Z,4.33
2018-05-15T18:10:27.447Z,4.50
2018-05-15T18:13:00.095Z,4.27
2018-05-15T18:15:32.678Z,4.30
2018-05-15T18:18:05.291Z,4.63
2018-05-15T18:20:37.893Z,4.50
2018-05-15T18:23:10.527Z,4.67
2018-05-15T18:25:43.887Z,4.87
2018-05-15T18:28:16.539Z,4.60
2018-05-15T18:30:49.150Z,4.90
2018-05-15T18:33:21.786Z,4.87
2018-05-15T18:35:54.379Z,4.63
2018-05-15T18:38:27.026Z,4.13
2018-05-15T18:40:59.631Z,4.73
2018-05-15T18:43:32.263Z,4.93
2018-05-15T18:46:04.856Z,3.93
2018-05-15T18:48:37.523Z,3.57
2018-05-15T18:51:10.128Z,3.93
2018-05-15T18:53:42.767Z,5.03
2018-05-15T18:56:15.379Z,5.07
2018-05-15T18:58:48.054Z,4.07
2018-05-15T19:01:20.832Z,4.73
2018-05-15T19:03:53.833Z,4.87
2018-05-15T19:06:27.199Z,4.60
2018-05-15T19:08:59.901Z,4.57
2018-05-15T19:11:32.654Z,4.60
2018-05-15T19:14:05.656Z,4.57
2018-05-15T19:16:38.431Z,4.83
2018-05-15T19:19:11.183Z,4.77
2018-05-15T19:21:43.744Z,5.70
2018-05-15T19:24:16.406Z,5.10
2018-05-15T19:26:49.211Z,5.07
2018-05-15T19:29:21.991Z,5.20
2018-05-15T19:31:55.389Z,4.50
2018-05-15T19:34:28.991Z,5.00
2018-05-15T19:37:07.295Z,5.10
2018-05-15T19:39:44.142Z,4.73
2018-05-15T19:42:16.854Z,5.30
2018-05-15T19:44:49.599Z,5.57
2018-05-15T19:47:22.236Z,4.87
2018-05-15T19:49:54.881Z,5.03
2018-05-15T19:52:27.479Z,5.47
2018-05-15T19:55:00.875Z,5.30
2018-05-15T19:57:33.465Z,5.47
2018-05-15T20:00:06.107Z,5.10
2018-05-15T20:02:38.710Z,5.63
2018-05-15T20:05:11.339Z,5.30
2018-05-15T20:07:43.929Z,5.00
2018-05-15T20:10:16.556Z,6.50
2018-05-15T20:12:49.915Z,6.10
2018-05-15T20:15:22.675Z,5.53
2018-05-15T20:17:55.187Z,6.50
2018-05-15T20:20:27.836Z,5.83
2018-05-15T20:23:00.435Z,6.70
2018-05-15T20:25:33.069Z,6.00
2018-05-15T20:28:05.658Z,5.23
2018-05-15T20:30:38.291Z,5.77
2018-05-15T20:33:10.884Z,6.20
2018-05-15T20:35:44.293Z,5.47
2018-05-15T20:38:16.898Z,5.90
2018-05-15T20:40:49.567Z,5.83
2018-05-15T20:43:22.937Z,6.20
2018-05-15T20:45:55.604Z,6.37
2018-05-15T20:48:28.194Z,5.97
2018-05-15T20:51:00.822Z,6.77
2018-05-15T20:53:33.435Z,6.60
2018-05-15T20:56:06.061Z,6.73
2018-05-15T20:58:39.427Z,6.30
2018-05-15T21:01:12.051Z,7.20
2018-05-15T21:03:45.407Z,7.37
2018-05-15T21:06:18.034Z,8.13
2018-05-15T21:08:50.628Z,8.20
2018-05-15T21:11:23.259Z,7.97
2018-05-15T21:13:55.852Z,8.20
2018-05-15T21:16:28.476Z,9.40
2018-05-15T21:19:01.069Z,8.20
2018-05-15T21:21:33.685Z,8.73
2018-05-15T21:24:06.266Z,8.20
2018-05-15T21:26:38.935Z,8.87
2018-05-15T21:29:11.532Z,9.00
2018-05-15T21:31:44.188Z,10.07
2018-05-15T21:34:16.791Z,9.73
2018-05-15T21:36:49.469Z,10.50
2018-05-15T21:39:22.043Z,10.17
2018-05-15T21:41:54.688Z,11.10
2018-05-15T21:44:27.287Z,10.80
2018-05-15T21:47:00.242Z,11.23
2018-05-15T21:49:33.615Z,11.77
2018-05-15T21:52:06.254Z,11.90
2018-05-15T21:54:38.843Z,13.13
2018-05-15T21:57:11.475Z,12.77
2018-05-15T21:59:44.068Z,12.13
2018-05-15T22:02:16.712Z,11.07
2018-05-15T22:04:49.325Z,12.57
2018-05-15T22:07:21.957Z,13.10
2018-05-15T22:09:55.310Z,13.40
2018-05-15T22:12:39.869Z,13.87
2018-05-15T22:15:24.116Z,13.30
2018-05-15T22:18:09.226Z,13.67
2018-05-15T22:20:53.660Z,12.47
2018-05-15T22:23:26.558Z,12.40
2018-05-15T22:25:59.920Z,12.13
2018-05-15T22:28:32.538Z,11.03
2018-05-15T22:31:05.134Z,11.60
2018-05-15T22:33:37.757Z,12.87
2018-05-15T22:36:10.360Z,12.43
2018-05-15T22:38:42.988Z,12.10
2018-05-15T22:41:15.591Z,10.93
2018-05-15T22:43:48.224Z,12.30
2018-05-15T22:46:20.826Z,12.03
2018-05-15T22:48:53.500Z,12.47
2018-05-15T22:51:26.874Z,12.50
2018-05-15T22:53:59.519Z,13.27
2018-05-15T22:56:32.116Z,14.33
2018-05-15T22:59:04.750Z,15.30
2018-05-15T23:01:37.348Z,15.63
2018-05-15T23:04:09.987Z,16.27
2018-05-15T23:06:42.609Z,15.43
2018-05-15T23:09:15.266Z,14.93
2018-05-15T23:11:47.863Z,15.67
2018-05-15T23:14:20.499Z,16.13
2018-05-15T23:16:53.143Z,16.10
2018-05-15T23:19:25.788Z,16.17
2018-05-15T23:21:58.391Z,17.07
2018-05-15T23:24:31.775Z,17.30
2018-05-15T23:27:04.381Z,18.50
2018-05-15T23:29:37.028Z,17.57
2018-05-15T23:32:09.624Z,16.97
2018-05-15T23:34:42.266Z,18.27
2018-05-15T23:37:14.859Z,17.50
2018-05-15T23:39:48.258Z,17.50
2018-05-15T23:42:20.856Z,17.80
2018-05-15T23:44:53.471Z,17.87
2018-05-15T23:47:26.071Z,17.63
2018-05-15T23:49:58.689Z,16.37
2018-05-15T23:52:31.306Z,17.73
2018-05-15T23:55:04.049Z,16.40
2018-05-15T23:57:36.784Z,17.23
